sensor_id;sensor_type;location;lat;lon;timestamp;P1;durP1;ratioP1;P2;durP2;ratioP2
78622;SDS011;67943;54.412;9.502;2023-03-23T00:03:10;22.45;;;14.95;;
78622;SDS011;67943;54.412;9.502;2023-03-23T00:08:11;21.65;;;15.02;;
78622;SDS011;67943;54.412;9.502;2023-03-23T00:13:14;22.02;;;14.52;;
78622;SDS011;67943;54.412;9.502;2023-03-23T00:18:21;22.75;;;14.38;;
78622;SDS011;67943;54.412;9.502;2023-03-23T00:23:23;19.52;;;14.23;;
78622;SDS011;67943;54.412;9.502;2023-03-23T00:28:26;23.40;;;14.38;;
78622;SDS011;67943;54.412;9.502;2023-03-23T00:33:30;21.23;;;14.15;;
78622;SDS011;67943;54.412;9.502;2023-03-23T00:38:33;19.50;;;12.85;;
78622;SDS011;67943;54.412;9.502;2023-03-23T00:43:36;20.73;;;13.25;;
78622;SDS011;67943;54.412;9.502;2023-03-23T00:48:40;15.40;;;10.48;;
78622;SDS011;67943;54.412;9.502;2023-03-23T00:53:44;13.75;;;9.80;;
78622;SDS011;67943;54.412;9.502;2023-03-23T00:58:47;17.33;;;9.82;;
78622;SDS011;67943;54.412;9.502;2023-03-23T01:03:49;13.05;;;9.38;;
78622;SDS011;67943;54.412;9.502;2023-03-23T01:08:53;11.48;;;7.88;;
78622;SDS011;67943;54.412;9.502;2023-03-23T01:13:56;10.48;;;6.90;;
78622;SDS011;67943;54.412;9.502;2023-03-23T01:18:59;9.15;;;5.43;;
78622;SDS011;67943;54.412;9.502;2023-03-23T01:24:01;7.40;;;4.00;;
78622;SDS011;67943;54.412;9.502;2023-03-23T01:29:02;7.85;;;3.35;;
78622;SDS011;67943;54.412;9.502;2023-03-23T01:34:05;3.50;;;2.60;;
78622;SDS011;67943;54.412;9.502;2023-03-23T01:39:07;4.10;;;1.40;;
78622;SDS011;67943;54.412;9.502;2023-03-23T01:49:45;2.85;;;1.42;;
78622;SDS011;67943;54.412;9.502;2023-03-23T01:54:51;3.75;;;1.17;;
78622;SDS011;67943;54.412;9.502;2023-03-23T01:59:56;2.67;;;1.40;;
78622;SDS011;67943;54.412;9.502;2023-03-23T02:05:02;2.45;;;1.25;;
78622;SDS011;67943;54.412;9.502;2023-03-23T02:10:12;3.17;;;1.43;;
78622;SDS011;67943;54.412;9.502;2023-03-23T02:15:13;3.60;;;1.65;;
78622;SDS011;67943;54.412;9.502;2023-03-23T02:20:23;6.38;;;1.52;;
78622;SDS011;67943;54.412;9.502;2023-03-23T02:25:58;4.43;;;1.60;;
78622;SDS011;67943;54.412;9.502;2023-03-23T02:31:21;4.35;;;1.48;;
78622;SDS011;67943;54.412;9.502;2023-03-23T02:41:45;3.95;;;1.90;;
78622;SDS011;67943;54.412;9.502;2023-03-23T02:46:50;4.82;;;2.15;;
78622;SDS011;67943;54.412;9.502;2023-03-23T02:51:55;6.50;;;3.20;;
78622;SDS011;67943;54.412;9.502;2023-03-23T02:56:59;6.88;;;3.42;;
78622;SDS011;67943;54.412;9.502;2023-03-23T03:02:04;7.15;;;3.38;;
78622;SDS011;67943;54.412;9.502;2023-03-23T03:07:18;6.82;;;3.63;;
78622;SDS011;67943;54.412;9.502;2023-03-23T03:12:31;6.10;;;3.60;;
78622;SDS011;67943;54.412;9.502;2023-03-23T03:17:44;7.65;;;4.03;;
78622;SDS011;67943;54.412;9.502;2023-03-23T03:22:49;7.88;;;4.63;;
78622;SDS011;67943;54.412;9.502;2023-03-23T03:27:52;8.75;;;4.40;;
78622;SDS011;67943;54.412;9.502;2023-03-23T03:32:55;6.20;;;3.58;;
78622;SDS011;67943;54.412;9.502;2023-03-23T03:38:05;7.80;;;3.55;;
78622;SDS011;67943;54.412;9.502;2023-03-23T03:43:08;6.28;;;2.60;;
78622;SDS011;67943;54.412;9.502;2023-03-23T03:48:10;4.75;;;2.42;;
78622;SDS011;67943;54.412;9.502;2023-03-23T03:53:13;6.13;;;2.72;;
78622;SDS011;67943;54.412;9.502;2023-03-23T03:58:15;6.50;;;2.50;;
78622;SDS011;67943;54.412;9.502;2023-03-23T04:03:17;4.70;;;1.92;;
78622;SDS011;67943;54.412;9.502;2023-03-23T04:08:20;3.80;;;1.50;;
78622;SDS011;67943;54.412;9.502;2023-03-23T04:13:22;3.80;;;1.25;;
78622;SDS011;67943;54.412;9.502;2023-03-23T04:18:23;3.22;;;1.27;;
78622;SDS011;67943;54.412;9.502;2023-03-23T04:23:27;2.70;;;1.33;;
78622;SDS011;67943;54.412;9.502;2023-03-23T04:28:31;2.35;;;1.27;;
78622;SDS011;67943;54.412;9.502;2023-03-23T04:33:33;2.78;;;1.10;;
78622;SDS011;67943;54.412;9.502;2023-03-23T04:38:38;2.22;;;0.90;;
78622;SDS011;67943;54.412;9.502;2023-03-23T04:43:41;3.45;;;1.02;;
78622;SDS011;67943;54.412;9.502;2023-03-23T04:48:42;2.88;;;1.17;;
78622;SDS011;67943;54.412;9.502;2023-03-23T04:53:46;3.25;;;1.33;;
78622;SDS011;67943;54.412;9.502;2023-03-23T04:58:47;2.83;;;1.60;;
78622;SDS011;67943;54.412;9.502;2023-03-23T05:03:49;3.50;;;1.70;;
78622;SDS011;67943;54.412;9.502;2023-03-23T05:08:51;6.05;;;1.92;;
78622;SDS011;67943;54.412;9.502;2023-03-23T05:13:53;5.10;;;2.78;;
78622;SDS011;67943;54.412;9.502;2023-03-23T05:18:54;4.47;;;3.30;;
78622;SDS011;67943;54.412;9.502;2023-03-23T05:23:58;8.68;;;5.60;;
78622;SDS011;67943;54.412;9.502;2023-03-23T05:29:00;11.00;;;7.63;;
78622;SDS011;67943;54.412;9.502;2023-03-23T05:34:02;16.67;;;10.63;;
78622;SDS011;67943;54.412;9.502;2023-03-23T05:39:05;17.13;;;11.57;;
78622;SDS011;67943;54.412;9.502;2023-03-23T05:44:06;18.73;;;12.55;;
78622;SDS011;67943;54.412;9.502;2023-03-23T05:49:08;20.25;;;13.48;;
78622;SDS011;67943;54.412;9.502;2023-03-23T05:54:11;25.50;;;14.60;;
78622;SDS011;67943;54.412;9.502;2023-03-23T05:59:13;21.70;;;13.63;;
78622;SDS011;67943;54.412;9.502;2023-03-23T06:04:14;25.88;;;15.32;;
78622;SDS011;67943;54.412;9.502;2023-03-23T06:09:18;23.33;;;15.35;;
78622;SDS011;67943;54.412;9.502;2023-03-23T06:14:20;23.52;;;14.50;;
78622;SDS011;67943;54.412;9.502;2023-03-23T06:19:22;22.92;;;13.80;;
78622;SDS011;67943;54.412;9.502;2023-03-23T06:24:28;20.27;;;12.20;;
78622;SDS011;67943;54.412;9.502;2023-03-23T06:29:29;19.40;;;10.93;;
78622;SDS011;67943;54.412;9.502;2023-03-23T06:34:31;18.30;;;11.18;;
78622;SDS011;67943;54.412;9.502;2023-03-23T06:39:34;14.05;;;8.35;;
78622;SDS011;67943;54.412;9.502;2023-03-23T06:44:37;13.15;;;8.60;;
78622;SDS011;67943;54.412;9.502;2023-03-23T06:49:38;13.38;;;7.85;;
78622;SDS011;67943;54.412;9.502;2023-03-23T06:54:42;14.43;;;7.30;;
78622;SDS011;67943;54.412;9.502;2023-03-23T06:59:43;11.20;;;5.85;;
78622;SDS011;67943;54.412;9.502;2023-03-23T07:04:45;13.45;;;5.18;;
78622;SDS011;67943;54.412;9.502;2023-03-23T07:09:48;10.10;;;4.75;;
78622;SDS011;67943;54.412;9.502;2023-03-23T07:14:50;11.73;;;5.30;;
78622;SDS011;67943;54.412;9.502;2023-03-23T07:19:51;10.23;;;4.50;;
78622;SDS011;67943;54.412;9.502;2023-03-23T07:24:54;7.50;;;4.53;;
78622;SDS011;67943;54.412;9.502;2023-03-23T07:29:56;8.32;;;4.63;;
78622;SDS011;67943;54.412;9.502;2023-03-23T07:34:58;6.60;;;4.25;;
78622;SDS011;67943;54.412;9.502;2023-03-23T07:40:00;8.88;;;4.20;;
78622;SDS011;67943;54.412;9.502;2023-03-23T07:45:09;8.52;;;4.30;;
78622;SDS011;67943;54.412;9.502;2023-03-23T07:50:11;9.20;;;3.30;;
78622;SDS011;67943;54.412;9.502;2023-03-23T07:55:15;8.73;;;2.75;;
78622;SDS011;67943;54.412;9.502;2023-03-23T08:00:18;10.20;;;2.33;;
78622;SDS011;67943;54.412;9.502;2023-03-23T08:05:23;9.00;;;2.42;;
78622;SDS011;67943;54.412;9.502;2023-03-23T08:10:27;6.47;;;2.35;;
78622;SDS011;67943;54.412;9.502;2023-03-23T08:15:29;10.77;;;2.92;;
78622;SDS011;67943;54.412;9.502;2023-03-23T08:20:31;10.50;;;3.00;;
78622;SDS011;67943;54.412;9.502;2023-03-23T08:25:34;7.82;;;2.83;;
78622;SDS011;67943;54.412;9.502;2023-03-23T08:30:37;12.25;;;2.70;;
78622;SDS011;67943;54.412;9.502;2023-03-23T08:35:40;19.00;;;2.92;;
78622;SDS011;67943;54.412;9.502;2023-03-23T08:40:44;9.52;;;2.40;;
78622;SDS011;67943;54.412;9.502;2023-03-23T08:45:46;14.32;;;2.80;;
78622;SDS011;67943;54.412;9.502;2023-03-23T08:50:48;15.15;;;2.47;;
78622;SDS011;67943;54.412;9.502;2023-03-23T08:55:51;14.10;;;2.55;;
78622;SDS011;67943;54.412;9.502;2023-03-23T09:00:53;13.63;;;2.55;;
78622;SDS011;67943;54.412;9.502;2023-03-23T09:05:57;10.52;;;2.15;;
78622;SDS011;67943;54.412;9.502;2023-03-23T09:11:01;24.30;;;2.80;;
78622;SDS011;67943;54.412;9.502;2023-03-23T09:16:03;20.08;;;3.35;;
78622;SDS011;67943;54.412;9.502;2023-03-23T09:21:06;18.40;;;3.33;;
78622;SDS011;67943;54.412;9.502;2023-03-23T09:26:09;17.02;;;2.95;;
78622;SDS011;67943;54.412;9.502;2023-03-23T09:31:11;19.77;;;3.45;;
78622;SDS011;67943;54.412;9.502;2023-03-23T09:36:12;22.33;;;3.00;;
78622;SDS011;67943;54.412;9.502;2023-03-23T09:46:54;18.73;;;3.90;;
78622;SDS011;67943;54.412;9.502;2023-03-23T09:52:01;15.30;;;3.00;;
78622;SDS011;67943;54.412;9.502;2023-03-23T09:57:16;16.58;;;3.25;;
78622;SDS011;67943;54.412;9.502;2023-03-23T10:02:26;16.02;;;3.13;;
78622;SDS011;67943;54.412;9.502;2023-03-23T10:07:30;17.48;;;3.28;;
78622;SDS011;67943;54.412;9.502;2023-03-23T10:12:33;17.30;;;3.35;;
78622;SDS011;67943;54.412;9.502;2023-03-23T10:17:44;15.65;;;2.90;;
78622;SDS011;67943;54.412;9.502;2023-03-23T10:22:52;15.02;;;3.78;;
78622;SDS011;67943;54.412;9.502;2023-03-23T10:28:03;13.77;;;2.65;;
78622;SDS011;67943;54.412;9.502;2023-03-23T10:33:11;13.30;;;2.50;;
78622;SDS011;67943;54.412;9.502;2023-03-23T10:38:17;18.55;;;2.90;;
78622;SDS011;67943;54.412;9.502;2023-03-23T10:43:24;13.52;;;2.65;;
78622;SDS011;67943;54.412;9.502;2023-03-23T10:48:28;16.55;;;2.72;;
78622;SDS011;67943;54.412;9.502;2023-03-23T10:53:33;15.48;;;2.20;;
78622;SDS011;67943;54.412;9.502;2023-03-23T10:58:38;11.63;;;2.60;;
78622;SDS011;67943;54.412;9.502;2023-03-23T11:03:41;12.85;;;2.45;;
78622;SDS011;67943;54.412;9.502;2023-03-23T11:08:48;13.90;;;2.63;;
78622;SDS011;67943;54.412;9.502;2023-03-23T11:14:14;10.52;;;2.55;;
78622;SDS011;67943;54.412;9.502;2023-03-23T11:19:22;13.88;;;2.55;;
78622;SDS011;67943;54.412;9.502;2023-03-23T11:24:26;16.38;;;2.63;;
78622;SDS011;67943;54.412;9.502;2023-03-23T11:29:29;14.05;;;3.30;;
78622;SDS011;67943;54.412;9.502;2023-03-23T11:34:32;13.48;;;3.15;;
78622;SDS011;67943;54.412;9.502;2023-03-23T11:39:45;16.52;;;2.92;;
78622;SDS011;67943;54.412;9.502;2023-03-23T11:44:49;11.57;;;3.08;;
78622;SDS011;67943;54.412;9.502;2023-03-23T11:49:52;14.82;;;3.03;;
78622;SDS011;67943;54.412;9.502;2023-03-23T11:55:00;19.83;;;3.53;;
78622;SDS011;67943;54.412;9.502;2023-03-23T12:00:15;21.77;;;3.40;;
78622;SDS011;67943;54.412;9.502;2023-03-23T12:10:46;18.40;;;3.35;;
78622;SDS011;67943;54.412;9.502;2023-03-23T12:15:59;18.15;;;3.50;;
78622;SDS011;67943;54.412;9.502;2023-03-23T12:21:11;13.60;;;2.70;;
78622;SDS011;67943;54.412;9.502;2023-03-23T12:44:10;14.15;;;3.15;;
78622;SDS011;67943;54.412;9.502;2023-03-23T12:49:15;16.80;;;3.55;;
78622;SDS011;67943;54.412;9.502;2023-03-23T12:54:24;20.50;;;4.20;;
78622;SDS011;67943;54.412;9.502;2023-03-23T12:59:33;17.70;;;3.27;;
78622;SDS011;67943;54.412;9.502;2023-03-23T13:04:41;15.98;;;3.95;;
78622;SDS011;67943;54.412;9.502;2023-03-23T13:09:49;18.10;;;4.88;;
78622;SDS011;67943;54.412;9.502;2023-03-23T13:14:59;21.60;;;3.55;;
78622;SDS011;67943;54.412;9.502;2023-03-23T13:25:50;21.33;;;3.90;;
78622;SDS011;67943;54.412;9.502;2023-03-23T13:31:00;19.25;;;4.03;;
78622;SDS011;67943;54.412;9.502;2023-03-23T13:36:07;23.80;;;3.90;;
78622;SDS011;67943;54.412;9.502;2023-03-23T13:41:13;22.90;;;3.60;;
78622;SDS011;67943;54.412;9.502;2023-03-23T13:46:27;20.67;;;3.88;;
78622;SDS011;67943;54.412;9.502;2023-03-23T13:51:34;19.23;;;3.65;;
78622;SDS011;67943;54.412;9.502;2023-03-23T13:56:40;25.02;;;4.85;;
78622;SDS011;67943;54.412;9.502;2023-03-23T14:01:42;17.33;;;3.50;;
78622;SDS011;67943;54.412;9.502;2023-03-23T14:06:45;19.95;;;3.53;;
78622;SDS011;67943;54.412;9.502;2023-03-23T14:11:51;20.75;;;4.13;;
78622;SDS011;67943;54.412;9.502;2023-03-23T14:17:05;21.75;;;3.65;;
78622;SDS011;67943;54.412;9.502;2023-03-23T14:22:16;20.15;;;3.45;;
78622;SDS011;67943;54.412;9.502;2023-03-23T14:32:23;17.45;;;3.63;;
78622;SDS011;67943;54.412;9.502;2023-03-23T14:37:26;21.63;;;3.65;;
78622;SDS011;67943;54.412;9.502;2023-03-23T14:42:31;23.83;;;3.80;;
78622;SDS011;67943;54.412;9.502;2023-03-23T14:47:36;20.27;;;3.85;;
78622;SDS011;67943;54.412;9.502;2023-03-23T14:52:40;18.17;;;4.50;;
78622;SDS011;67943;54.412;9.502;2023-03-23T14:57:43;18.77;;;3.33;;
78622;SDS011;67943;54.412;9.502;2023-03-23T15:02:47;19.63;;;3.83;;
78622;SDS011;67943;54.412;9.502;2023-03-23T15:07:52;25.67;;;3.63;;
78622;SDS011;67943;54.412;9.502;2023-03-23T15:12:57;20.73;;;4.00;;
78622;SDS011;67943;54.412;9.502;2023-03-23T15:17:59;22.77;;;4.57;;
78622;SDS011;67943;54.412;9.502;2023-03-23T15:23:05;20.60;;;3.90;;
78622;SDS011;67943;54.412;9.502;2023-03-23T15:28:15;26.90;;;4.47;;
78622;SDS011;67943;54.412;9.502;2023-03-23T15:33:17;24.70;;;4.30;;
78622;SDS011;67943;54.412;9.502;2023-03-23T15:38:28;21.48;;;4.05;;
78622;SDS011;67943;54.412;9.502;2023-03-23T15:43:33;21.50;;;4.22;;
78622;SDS011;67943;54.412;9.502;2023-03-23T15:48:45;23.98;;;4.50;;
78622;SDS011;67943;54.412;9.502;2023-03-23T15:58:52;22.85;;;3.85;;
78622;SDS011;67943;54.412;9.502;2023-03-23T16:03:54;24.95;;;4.68;;
78622;SDS011;67943;54.412;9.502;2023-03-23T16:08:58;18.83;;;3.90;;
78622;SDS011;67943;54.412;9.502;2023-03-23T16:14:01;22.17;;;4.65;;
78622;SDS011;67943;54.412;9.502;2023-03-23T16:19:03;25.45;;;4.97;;
78622;SDS011;67943;54.412;9.502;2023-03-23T16:24:05;22.73;;;4.30;;
78622;SDS011;67943;54.412;9.502;2023-03-23T16:29:10;26.00;;;6.65;;
78622;SDS011;67943;54.412;9.502;2023-03-23T16:34:12;28.08;;;5.60;;
78622;SDS011;67943;54.412;9.502;2023-03-23T16:39:14;30.58;;;6.22;;
78622;SDS011;67943;54.412;9.502;2023-03-23T16:44:19;22.02;;;4.65;;
78622;SDS011;67943;54.412;9.502;2023-03-23T16:49:20;23.02;;;9.13;;
78622;SDS011;67943;54.412;9.502;2023-03-23T16:54:22;23.48;;;3.83;;
78622;SDS011;67943;54.412;9.502;2023-03-23T16:59:27;25.67;;;3.92;;
78622;SDS011;67943;54.412;9.502;2023-03-23T17:04:29;28.52;;;4.75;;
78622;SDS011;67943;54.412;9.502;2023-03-23T17:09:30;21.58;;;4.22;;
78622;SDS011;67943;54.412;9.502;2023-03-23T17:14:35;29.98;;;5.15;;
78622;SDS011;67943;54.412;9.502;2023-03-23T17:19:36;31.90;;;4.50;;
78622;SDS011;67943;54.412;9.502;2023-03-23T17:24:38;27.50;;;5.82;;
78622;SDS011;67943;54.412;9.502;2023-03-23T17:29:41;25.50;;;4.97;;
78622;SDS011;67943;54.412;9.502;2023-03-23T17:34:42;26.42;;;8.15;;
78622;SDS011;67943;54.412;9.502;2023-03-23T17:39:44;29.83;;;5.55;;
78622;SDS011;67943;54.412;9.502;2023-03-23T17:44:47;35.63;;;11.82;;
78622;SDS011;67943;54.412;9.502;2023-03-23T17:49:48;29.60;;;12.77;;
78622;SDS011;67943;54.412;9.502;2023-03-23T17:54:50;23.45;;;5.22;;
78622;SDS011;67943;54.412;9.502;2023-03-23T17:59:54;29.17;;;7.90;;
78622;SDS011;67943;54.412;9.502;2023-03-23T18:04:55;31.95;;;8.60;;
78622;SDS011;67943;54.412;9.502;2023-03-23T18:09:58;20.50;;;5.97;;
78622;SDS011;67943;54.412;9.502;2023-03-23T18:15:02;28.40;;;8.57;;
78622;SDS011;67943;54.412;9.502;2023-03-23T18:20:05;26.55;;;9.02;;
78622;SDS011;67943;54.412;9.502;2023-03-23T18:25:07;45.80;;;15.60;;
78622;SDS011;67943;54.412;9.502;2023-03-23T18:30:10;151.25;;;53.67;;
78622;SDS011;67943;54.412;9.502;2023-03-23T18:35:12;32.55;;;8.90;;
78622;SDS011;67943;54.412;9.502;2023-03-23T18:40:14;23.92;;;4.68;;
78622;SDS011;67943;54.412;9.502;2023-03-23T18:45:17;21.08;;;4.00;;
78622;SDS011;67943;54.412;9.502;2023-03-23T18:50:19;20.80;;;4.70;;
78622;SDS011;67943;54.412;9.502;2023-03-23T18:55:20;24.02;;;5.97;;
78622;SDS011;67943;54.412;9.502;2023-03-23T19:00:24;26.63;;;4.78;;
78622;SDS011;67943;54.412;9.502;2023-03-23T19:05:26;30.27;;;6.28;;
78622;SDS011;67943;54.412;9.502;2023-03-23T19:10:28;24.58;;;5.18;;
78622;SDS011;67943;54.412;9.502;2023-03-23T19:15:32;30.42;;;6.68;;
78622;SDS011;67943;54.412;9.502;2023-03-23T19:20:33;32.80;;;6.25;;
78622;SDS011;67943;54.412;9.502;2023-03-23T19:25:35;25.73;;;5.68;;
78622;SDS011;67943;54.412;9.502;2023-03-23T19:30:42;28.13;;;6.72;;
78622;SDS011;67943;54.412;9.502;2023-03-23T19:35:46;25.45;;;7.90;;
78622;SDS011;67943;54.412;9.502;2023-03-23T19:40:50;24.50;;;8.18;;
78622;SDS011;67943;54.412;9.502;2023-03-23T19:45:55;31.92;;;8.50;;
78622;SDS011;67943;54.412;9.502;2023-03-23T19:50:56;23.92;;;5.47;;
78622;SDS011;67943;54.412;9.502;2023-03-23T19:55:58;23.67;;;5.38;;
78622;SDS011;67943;54.412;9.502;2023-03-23T20:01:01;26.20;;;4.93;;
78622;SDS011;67943;54.412;9.502;2023-03-23T20:06:04;20.98;;;4.45;;
78622;SDS011;67943;54.412;9.502;2023-03-23T20:11:09;21.83;;;4.38;;
78622;SDS011;67943;54.412;9.502;2023-03-23T20:16:13;26.73;;;4.35;;
78622;SDS011;67943;54.412;9.502;2023-03-23T20:21:16;23.75;;;4.28;;
78622;SDS011;67943;54.412;9.502;2023-03-23T20:26:20;25.27;;;4.38;;
78622;SDS011;67943;54.412;9.502;2023-03-23T20:31:25;23.65;;;4.65;;
78622;SDS011;67943;54.412;9.502;2023-03-23T20:36:29;19.10;;;3.75;;
78622;SDS011;67943;54.412;9.502;2023-03-23T20:41:34;18.55;;;4.13;;
78622;SDS011;67943;54.412;9.502;2023-03-23T20:46:38;16.17;;;3.10;;
78622;SDS011;67943;54.412;9.502;2023-03-23T20:51:40;17.70;;;3.63;;
78622;SDS011;67943;54.412;9.502;2023-03-23T20:56:42;10.45;;;3.03;;
78622;SDS011;67943;54.412;9.502;2023-03-23T21:01:45;13.38;;;2.90;;
78622;SDS011;67943;54.412;9.502;2023-03-23T21:06:49;14.02;;;2.67;;
78622;SDS011;67943;54.412;9.502;2023-03-23T21:11:51;15.27;;;2.65;;
78622;SDS011;67943;54.412;9.502;2023-03-23T21:16:53;11.40;;;3.13;;
78622;SDS011;67943;54.412;9.502;2023-03-23T21:21:56;9.70;;;2.60;;
78622;SDS011;67943;54.412;9.502;2023-03-23T21:26:58;10.10;;;2.47;;
78622;SDS011;67943;54.412;9.502;2023-03-23T21:32:03;9.32;;;2.90;;
78622;SDS011;67943;54.412;9.502;2023-03-23T21:37:05;10.02;;;2.50;;
78622;SDS011;67943;54.412;9.502;2023-03-23T21:42:06;10.18;;;2.20;;
78622;SDS011;67943;54.412;9.502;2023-03-23T21:47:09;13.15;;;2.80;;
78622;SDS011;67943;54.412;9.502;2023-03-23T21:52:11;8.02;;;2.25;;
78622;SDS011;67943;54.412;9.502;2023-03-23T21:57:13;11.07;;;2.40;;
78622;SDS011;67943;54.412;9.502;2023-03-23T22:02:16;7.38;;;2.83;;
78622;SDS011;67943;54.412;9.502;2023-03-23T22:07:18;11.23;;;2.50;;
78622;SDS011;67943;54.412;9.502;2023-03-23T22:12:22;5.13;;;2.45;;
78622;SDS011;67943;54.412;9.502;2023-03-23T22:17:25;6.07;;;2.70;;
78622;SDS011;67943;54.412;9.502;2023-03-23T22:22:26;7.00;;;2.60;;
78622;SDS011;67943;54.412;9.502;2023-03-23T22:27:28;8.57;;;2.88;;
78622;SDS011;67943;54.412;9.502;2023-03-23T22:32:31;11.02;;;3.10;;
78622;SDS011;67943;54.412;9.502;2023-03-23T22:37:32;8.88;;;3.00;;
78622;SDS011;67943;54.412;9.502;2023-03-23T22:42:34;8.50;;;3.00;;
78622;SDS011;67943;54.412;9.502;2023-03-23T22:47:37;7.60;;;2.60;;
78622;SDS011;67943;54.412;9.502;2023-03-23T22:52:39;9.85;;;2.67;;
78622;SDS011;67943;54.412;9.502;2023-03-23T22:57:40;8.77;;;3.10;;
78622;SDS011;67943;54.412;9.502;2023-03-23T23:02:43;10.27;;;3.10;;
78622;SDS011;67943;54.412;9.502;2023-03-23T23:07:45;9.30;;;3.63;;
78622;SDS011;67943;54.412;9.502;2023-03-23T23:12:46;11.57;;;4.15;;
78622;SDS011;67943;54.412;9.502;2023-03-23T23:17:49;8.27;;;3.42;;
78622;SDS011;67943;54.412;9.502;2023-03-23T23:22:51;13.27;;;4.45;;
78622;SDS011;67943;54.412;9.502;2023-03-23T23:27:52;10.90;;;4.32;;
78622;SDS011;67943;54.412;9.502;2023-03-23T23:32:56;9.32;;;4.80;;
78622;SDS011;67943;54.412;9.502;2023-03-23T23:37:58;10.30;;;5.18;;
78622;SDS011;67943;54.412;9.502;2023-03-23T23:42:59;11.05;;;5.90;;
78622;SDS011;67943;54.412;9.502;2023-03-23T23:48:03;14.52;;;7.65;;
78622;SDS011;67943;54.412;9.502;2023-03-23T23:53:05;13.65;;;7.55;;
78622;SDS011;67943;54.412;9.502;2023-03-23T23:58:08;14.43;;;7.95;;
